createdAt,value
2018-11-11T00:00:56.634Z,145.77
2018-11-11T00:03:25.031Z,163.60
2018-11-11T00:05:53.424Z,165.83
2018-11-11T00:08:21.832Z,165.33
2018-11-11T00:10:50.238Z,195.90
2018-11-11T00:13:18.692Z,203.80
2018-11-11T00:15:47.085Z,196.97
2018-11-11T00:18:15.509Z,203.83
2018-11-11T00:20:43.916Z,194.03
2018-11-11T00:23:12.314Z,200.70
2018-11-11T00:25:40.692Z,207.07
2018-11-11T00:28:09.087Z,206.67
2018-11-11T00:30:37.492Z,198.43
2018-11-11T00:33:06.611Z,194.37
2018-11-11T00:35:35.024Z,186.03
2018-11-11T00:38:03.442Z,194.77
2018-11-11T00:40:32.089Z,183.77
2018-11-11T00:43:00.516Z,180.87
2018-11-11T00:45:28.920Z,189.10
2018-11-11T00:47:57.303Z,193.33
2018-11-11T00:50:25.707Z,196.43
2018-11-11T00:52:54.092Z,187.67
2018-11-11T00:55:22.510Z,184.57
2018-11-11T00:57:50.894Z,177.80
2018-11-11T01:00:20.031Z,197.23
2018-11-11T01:02:48.522Z,185.93
2018-11-11T01:05:16.916Z,175.07
2018-11-11T01:07:45.965Z,188.13
2018-11-11T01:10:15.748Z,188.83
2018-11-11T01:12:44.712Z,193.53
2018-11-11T01:15:14.353Z,180.83
2018-11-11T01:17:42.869Z,184.77
2018-11-11T01:20:12.648Z,178.53
2018-11-11T01:22:41.219Z,193.27
2018-11-11T01:25:12.480Z,178.20
2018-11-11T01:27:40.992Z,177.10
2018-11-11T01:30:09.380Z,165.83
2018-11-11T01:32:38.335Z,169.07
2018-11-11T01:35:08.879Z,156.60
2018-11-11T01:37:37.561Z,132.93
2018-11-11T01:40:06.875Z,137.90
2018-11-11T01:42:35.309Z,138.23
2018-11-11T01:45:04.414Z,141.40
2018-11-11T01:47:33.255Z,134.03
2018-11-11T01:50:01.968Z,131.33
2018-11-11T01:52:31.315Z,134.43
2018-11-11T01:55:00.183Z,132.47
2018-11-11T01:57:29.455Z,124.63
2018-11-11T01:59:58.015Z,132.57
2018-11-11T02:02:27.893Z,128.97
2018-11-11T02:04:56.330Z,120.13
2018-11-11T02:07:24.915Z,119.70
2018-11-11T02:09:53.865Z,111.67
2018-11-11T02:12:23.087Z,116.33
2018-11-11T02:14:52.151Z,108.40
2018-11-11T02:17:20.603Z,109.03
2018-11-11T02:19:49.103Z,109.70
2018-11-11T02:22:18.070Z,106.77
2018-11-11T02:24:47.019Z,102.70
2018-11-11T02:27:15.916Z,103.13
2018-11-11T02:29:44.427Z,111.00
2018-11-11T02:32:13.013Z,107.17
2018-11-11T02:34:41.951Z,101.00
2018-11-11T02:37:11.091Z,98.20
2018-11-11T02:39:40.004Z,100.80
2018-11-11T02:42:08.618Z,101.83
2018-11-11T02:44:37.656Z,100.50
2018-11-11T02:47:06.804Z,92.97
2018-11-11T02:49:35.439Z,89.13
2018-11-11T02:52:03.961Z,87.33
2018-11-11T02:54:32.563Z,90.30
2018-11-11T02:57:01.728Z,91.57
2018-11-11T02:59:30.515Z,84.53
2018-11-11T03:01:59.433Z,86.90
2018-11-11T03:04:27.946Z,82.00
2018-11-11T03:06:56.538Z,85.83
2018-11-11T03:09:25.584Z,85.10
2018-11-11T03:11:54.689Z,81.97
2018-11-11T03:14:23.064Z,80.70
2018-11-11T03:16:51.769Z,81.40
2018-11-11T03:19:20.156Z,76.77
2018-11-11T03:21:48.680Z,82.17
2018-11-11T03:24:17.708Z,72.07
2018-11-11T03:26:47.082Z,74.60
2018-11-11T03:29:16.395Z,77.73
2018-11-11T03:31:44.853Z,69.33
2018-11-11T03:34:13.403Z,43.23
2018-11-11T03:36:41.786Z,44.13
2018-11-11T03:39:10.730Z,42.87
2018-11-11T03:41:39.647Z,34.97
2018-11-11T03:44:09.369Z,37.27
2018-11-11T03:46:37.845Z,33.10
2018-11-11T03:49:06.337Z,31.47
2018-11-11T03:51:34.736Z,29.47
2018-11-11T03:54:03.119Z,29.67
2018-11-11T03:56:31.546Z,27.97
2018-11-11T03:58:59.943Z,29.90
2018-11-11T04:01:28.332Z,25.73
2018-11-11T04:03:56.741Z,24.40
2018-11-11T04:06:25.409Z,31.10
2018-11-11T04:08:53.828Z,24.20
2018-11-11T04:11:22.310Z,25.80
2018-11-11T04:13:50.882Z,24.23
2018-11-11T04:16:19.283Z,22.53
2018-11-11T04:18:47.686Z,23.37
2018-11-11T04:21:16.140Z,20.70
2018-11-11T04:23:44.523Z,21.67
2018-11-11T04:26:12.966Z,18.70
2018-11-11T04:28:41.378Z,20.43
2018-11-11T04:31:09.746Z,20.13
2018-11-11T04:33:38.211Z,16.47
2018-11-11T04:36:06.628Z,16.50
2018-11-11T04:38:35.020Z,17.13
2018-11-11T04:41:03.408Z,14.60
2018-11-11T04:43:31.787Z,15.37
2018-11-11T04:46:00.188Z,15.30
2018-11-11T04:48:28.603Z,13.70
2018-11-11T04:50:56.990Z,11.80
2018-11-11T04:53:25.384Z,14.17
2018-11-11T04:55:53.765Z,11.47
2018-11-11T04:58:22.232Z,12.67
2018-11-11T05:00:50.623Z,14.20
2018-11-11T05:03:19.039Z,12.87
2018-11-11T05:05:47.450Z,10.77
2018-11-11T05:08:15.827Z,10.00
2018-11-11T05:10:44.317Z,10.50
2018-11-11T05:13:12.687Z,8.90
2018-11-11T05:15:41.092Z,8.13
2018-11-11T05:18:09.465Z,10.00
2018-11-11T05:20:37.867Z,9.57
2018-11-11T05:23:06.625Z,7.50
2018-11-11T05:25:34.998Z,7.77
2018-11-11T05:28:03.499Z,6.63
2018-11-11T05:30:31.891Z,7.17
2018-11-11T05:33:00.270Z,7.03
2018-11-11T05:35:28.663Z,7.63
2018-11-11T05:37:57.025Z,6.53
2018-11-11T05:40:25.424Z,5.90
2018-11-11T05:42:53.792Z,5.10
2018-11-11T05:45:22.179Z,7.43
2018-11-11T05:47:50.641Z,8.07
2018-11-11T05:50:19.031Z,6.03
2018-11-11T05:52:47.856Z,5.10
2018-11-11T05:55:16.395Z,5.23
2018-11-11T05:57:44.787Z,4.97
2018-11-11T06:00:14.376Z,5.10
2018-11-11T06:02:42.966Z,5.70
2018-11-11T06:05:12.683Z,8.00
2018-11-11T06:07:41.083Z,7.33
2018-11-11T06:10:11.095Z,4.63
2018-11-11T06:12:39.498Z,5.87
2018-11-11T06:15:09.497Z,4.20
2018-11-11T06:17:38.274Z,6.47
2018-11-11T06:20:08.769Z,5.73
2018-11-11T06:22:37.175Z,5.43
2018-11-11T06:25:06.102Z,4.37
2018-11-11T06:27:34.565Z,7.23
2018-11-11T06:30:02.879Z,5.10
2018-11-11T06:32:32.383Z,4.80
2018-11-11T06:35:00.868Z,5.23
2018-11-11T06:37:29.265Z,5.63
2018-11-11T06:39:57.669Z,7.23
2018-11-11T06:42:26.068Z,4.07
2018-11-11T06:44:54.581Z,4.80
2018-11-11T06:47:22.962Z,4.50
2018-11-11T06:49:51.396Z,4.33
2018-11-11T06:52:19.810Z,4.00
2018-11-11T06:54:48.214Z,4.03
2018-11-11T06:57:16.601Z,4.97
2018-11-11T06:59:44.999Z,3.97
2018-11-11T07:02:13.381Z,3.73
2018-11-11T07:04:41.766Z,3.17
2018-11-11T07:07:10.147Z,4.17
2018-11-11T07:09:38.529Z,5.17
2018-11-11T07:12:06.931Z,5.43
2018-11-11T07:14:35.308Z,5.63
2018-11-11T07:17:03.695Z,3.27
2018-11-11T07:19:32.207Z,4.63
2018-11-11T07:22:00.619Z,5.27
2018-11-11T07:24:29.104Z,5.87
2018-11-11T07:26:57.511Z,5.17
2018-11-11T07:29:25.886Z,5.87
2018-11-11T07:31:54.301Z,5.63
2018-11-11T07:34:22.674Z,9.37
2018-11-11T07:36:51.076Z,11.80
2018-11-11T07:39:19.555Z,12.77
2018-11-11T07:41:47.949Z,9.70
2018-11-11T07:44:16.396Z,14.00
2018-11-11T07:46:44.795Z,10.57
2018-11-11T07:49:13.177Z,10.83
2018-11-11T07:51:41.737Z,11.30
2018-11-11T07:54:10.167Z,11.90
2018-11-11T07:56:38.559Z,16.13
2018-11-11T07:59:07.036Z,14.67
2018-11-11T08:01:35.434Z,14.87
2018-11-11T08:04:03.931Z,12.67
2018-11-11T08:06:32.315Z,14.30
2018-11-11T08:09:00.700Z,16.50
2018-11-11T08:11:40.630Z,14.27
2018-11-11T08:14:09.739Z,12.13
2018-11-11T08:16:38.212Z,14.70
2018-11-11T08:19:06.585Z,15.30
2018-11-11T08:21:34.978Z,15.90
2018-11-11T08:24:03.399Z,17.83
2018-11-11T08:26:31.807Z,17.13
2018-11-11T08:29:00.220Z,18.23
2018-11-11T08:31:28.748Z,21.27
2018-11-11T08:33:57.148Z,16.63
2018-11-11T08:36:25.915Z,16.00
2018-11-11T08:38:54.440Z,16.50
2018-11-11T08:41:22.859Z,15.20
2018-11-11T08:43:51.271Z,22.83
2018-11-11T08:46:19.676Z,28.67
2018-11-11T08:48:48.068Z,25.73
2018-11-11T08:51:16.495Z,29.17
2018-11-11T08:53:44.895Z,24.37
2018-11-11T08:56:13.410Z,26.00
2018-11-11T08:58:41.860Z,33.93
2018-11-11T09:01:10.270Z,35.47
2018-11-11T09:03:38.915Z,46.83
2018-11-11T09:06:07.341Z,47.10
2018-11-11T09:08:35.764Z,36.97
2018-11-11T09:11:04.243Z,34.73
2018-11-11T09:13:32.788Z,35.90
2018-11-11T09:16:01.452Z,37.50
2018-11-11T09:18:29.830Z,31.53
2018-11-11T09:20:58.456Z,30.47
2018-11-11T09:23:26.997Z,29.33
2018-11-11T09:25:55.399Z,26.20
2018-11-11T09:28:23.781Z,23.83
2018-11-11T09:30:52.199Z,24.57
2018-11-11T09:33:20.820Z,24.07
2018-11-11T09:35:49.235Z,21.57
2018-11-11T09:38:18.364Z,17.83
2018-11-11T09:40:47.748Z,26.03
2018-11-11T09:43:16.217Z,20.47
2018-11-11T09:45:44.695Z,17.80
2018-11-11T09:48:13.118Z,25.20
2018-11-11T09:50:41.564Z,27.97
2018-11-11T09:53:09.992Z,31.30
2018-11-11T09:55:38.502Z,67.83
2018-11-11T09:58:06.947Z,78.57
2018-11-11T10:00:35.443Z,74.27
2018-11-11T10:03:10.821Z,79.53
2018-11-11T10:05:49.273Z,86.40
2018-11-11T10:08:25.619Z,79.63
2018-11-11T10:10:58.328Z,77.07
2018-11-11T10:13:34.469Z,68.13
2018-11-11T10:16:08.017Z,69.53
2018-11-11T10:18:40.943Z,69.77
2018-11-11T10:23:18.448Z,69.13
2018-11-11T10:25:54.912Z,82.00
2018-11-11T10:28:32.236Z,87.23
2018-11-11T10:31:05.983Z,89.50
2018-11-11T10:33:40.665Z,94.57
2018-11-11T10:36:28.280Z,94.97
2018-11-11T10:39:00.397Z,98.83
2018-11-11T10:42:04.669Z,94.10
2018-11-11T10:44:39.188Z,93.80
2018-11-11T10:47:13.233Z,88.90
2018-11-11T10:50:02.902Z,98.73
2018-11-11T10:52:31.449Z,92.77
2018-11-11T10:54:59.883Z,80.37
2018-11-11T10:57:28.494Z,73.83
2018-11-11T10:59:56.893Z,64.07
2018-11-11T11:02:32.447Z,54.47
2018-11-11T11:05:06.175Z,57.53
2018-11-11T11:07:34.632Z,56.33
2018-11-11T11:10:03.055Z,53.23
2018-11-11T11:12:31.454Z,52.33
2018-11-11T11:15:00.033Z,76.70
2018-11-11T11:17:28.434Z,91.73
2018-11-11T11:19:56.835Z,59.07
2018-11-11T11:22:25.234Z,59.07
2018-11-11T11:24:53.659Z,67.77
2018-11-11T11:27:22.142Z,83.53
2018-11-11T11:29:51.090Z,67.40
2018-11-11T11:32:20.376Z,78.83
2018-11-11T11:34:48.928Z,79.67
2018-11-11T11:37:17.332Z,79.40
2018-11-11T11:39:45.855Z,78.63
2018-11-11T11:42:14.261Z,72.07
2018-11-11T11:44:42.664Z,65.60
2018-11-11T11:47:11.236Z,63.90
2018-11-11T11:49:39.679Z,55.30
2018-11-11T11:52:08.121Z,52.23
2018-11-11T11:54:36.519Z,51.30
2018-11-11T11:57:05.115Z,47.53
2018-11-11T11:59:33.500Z,46.77
2018-11-11T12:02:01.946Z,45.23
2018-11-11T12:04:30.345Z,46.47
2018-11-11T12:06:58.793Z,43.07
2018-11-11T12:09:27.171Z,41.87
2018-11-11T12:11:55.595Z,42.30
2018-11-11T12:14:23.998Z,40.90
2018-11-11T12:16:52.429Z,34.20
2018-11-11T12:19:20.813Z,35.50
2018-11-11T12:21:49.191Z,35.20
2018-11-11T12:24:17.625Z,35.63
2018-11-11T12:26:46.600Z,33.07
2018-11-11T12:29:15.002Z,31.90
2018-11-11T12:31:44.316Z,29.80
2018-11-11T12:34:13.057Z,31.77
2018-11-11T12:36:41.551Z,33.40
2018-11-11T12:39:11.715Z,32.23
2018-11-11T12:41:40.140Z,32.33
2018-11-11T12:44:10.479Z,30.60
2018-11-11T12:46:38.991Z,28.80
2018-11-11T12:49:07.902Z,26.03
2018-11-11T12:51:36.818Z,28.30
2018-11-11T12:54:05.260Z,26.33
2018-11-11T12:56:33.678Z,25.33
2018-11-11T12:59:02.095Z,22.90
2018-11-11T13:01:30.524Z,27.87
2018-11-11T13:03:58.935Z,24.13
2018-11-11T13:06:27.378Z,27.60
2018-11-11T13:08:55.779Z,48.00
2018-11-11T13:11:24.270Z,60.13
2018-11-11T13:13:52.665Z,60.20
2018-11-11T13:16:24.736Z,49.77
2018-11-11T13:18:53.509Z,48.57
2018-11-11T13:21:22.070Z,44.13
2018-11-11T13:23:50.507Z,44.90
2018-11-11T13:26:18.943Z,37.87
2018-11-11T13:28:47.464Z,37.83
2018-11-11T13:31:15.867Z,39.37
2018-11-11T13:33:44.259Z,33.17
2018-11-11T13:36:12.664Z,36.23
2018-11-11T13:38:41.114Z,32.60
2018-11-11T13:41:10.158Z,36.17
2018-11-11T13:43:38.935Z,34.93
2018-11-11T13:46:07.633Z,35.63
2018-11-11T13:48:36.487Z,48.57
2018-11-11T13:51:05.319Z,76.30
2018-11-11T13:53:34.446Z,191.17
2018-11-11T13:56:03.288Z,113.03
2018-11-11T13:58:31.951Z,104.50
2018-11-11T14:01:01.900Z,108.77
2018-11-11T14:03:30.738Z,97.90
2018-11-11T14:05:59.223Z,81.13
2018-11-11T14:08:28.593Z,76.87
2018-11-11T14:10:57.708Z,71.90
2018-11-11T14:13:26.328Z,76.83
2018-11-11T14:15:55.764Z,74.13
2018-11-11T14:18:24.445Z,68.60
2018-11-11T14:20:52.792Z,63.33
2018-11-11T14:23:21.604Z,68.00
2018-11-11T14:25:50.104Z,91.07
2018-11-11T14:28:18.485Z,111.10
2018-11-11T14:30:46.943Z,112.57
2018-11-11T14:33:15.369Z,130.93
2018-11-11T14:35:43.754Z,141.97
2018-11-11T14:38:12.198Z,187.63
2018-11-11T14:40:40.721Z,144.20
2018-11-11T14:43:09.166Z,169.10
2018-11-11T14:45:37.627Z,162.90
2018-11-11T14:48:06.024Z,150.53
2018-11-11T14:50:34.479Z,132.17
2018-11-11T14:53:03.244Z,122.00
2018-11-11T14:55:32.205Z,120.77
2018-11-11T14:58:01.400Z,123.17
2018-11-11T15:00:32.217Z,120.97
2018-11-11T15:03:16.949Z,121.67
2018-11-11T15:05:45.430Z,117.60
2018-11-11T15:08:13.854Z,108.60
2018-11-11T15:10:42.449Z,116.93
2018-11-11T15:13:11.637Z,115.80
2018-11-11T15:15:39.966Z,107.90
2018-11-11T15:18:08.744Z,100.60
2018-11-11T15:20:37.704Z,92.53
2018-11-11T15:23:06.531Z,92.07
2018-11-11T15:25:35.082Z,100.77
2018-11-11T15:28:03.535Z,119.80
2018-11-11T15:30:33.351Z,112.33
2018-11-11T15:33:02.329Z,117.53
2018-11-11T15:35:30.747Z,136.13
2018-11-11T15:37:59.237Z,111.80
2018-11-11T15:40:29.273Z,118.47
2018-11-11T15:42:57.998Z,116.53
2018-11-11T15:45:27.899Z,117.97
2018-11-11T15:47:56.347Z,114.27
2018-11-11T15:50:26.192Z,104.67
2018-11-11T15:52:55.883Z,74.10
2018-11-11T15:55:25.517Z,84.90
2018-11-11T15:57:54.099Z,79.30
2018-11-11T16:00:24.917Z,103.63
2018-11-11T16:02:53.319Z,87.10
2018-11-11T16:05:22.711Z,84.60
2018-11-11T16:07:52.827Z,80.80
2018-11-11T16:10:22.640Z,79.87
2018-11-11T16:12:51.306Z,69.33
2018-11-11T16:15:24.146Z,82.63
2018-11-11T16:17:54.112Z,75.00
2018-11-11T16:20:23.922Z,72.73
2018-11-11T16:22:53.632Z,74.53
2018-11-11T16:25:22.148Z,75.07
2018-11-11T16:27:50.849Z,90.60
2018-11-11T16:30:20.773Z,102.93
2018-11-11T16:32:49.726Z,99.77
2018-11-11T16:35:19.444Z,130.87
2018-11-11T16:37:47.953Z,136.90
2018-11-11T16:40:34.556Z,117.77
2018-11-11T16:43:03.319Z,130.77
2018-11-11T16:45:32.806Z,127.37
2018-11-11T16:48:01.364Z,123.67
2018-11-11T16:50:31.274Z,127.87
2018-11-11T16:53:01.382Z,133.67
2018-11-11T16:55:31.002Z,125.87
2018-11-11T16:58:00.207Z,122.40
2018-11-11T17:00:30.904Z,141.10
2018-11-11T17:03:00.588Z,143.83
2018-11-11T17:05:30.480Z,139.00
2018-11-11T17:07:58.928Z,127.77
2018-11-11T17:10:29.691Z,123.20
2018-11-11T17:12:59.624Z,120.87
2018-11-11T17:15:29.255Z,130.93
2018-11-11T17:17:57.659Z,131.47
2018-11-11T17:20:26.800Z,128.13
2018-11-11T17:22:57.572Z,132.10
2018-11-11T17:25:26.774Z,129.73
2018-11-11T17:27:55.334Z,124.40
2018-11-11T17:30:25.964Z,128.97
2018-11-11T17:32:55.114Z,126.23
2018-11-11T17:35:23.513Z,118.67
2018-11-11T17:37:51.911Z,112.90
2018-11-11T17:40:21.719Z,108.50
2018-11-11T17:42:51.245Z,105.43
2018-11-11T17:45:19.830Z,114.20
2018-11-11T17:47:49.034Z,104.13
2018-11-11T17:50:19.556Z,107.07
2018-11-11T17:52:47.964Z,102.57
2018-11-11T17:55:17.732Z,111.90
2018-11-11T17:57:46.428Z,213.97
2018-11-11T18:00:16.131Z,196.30
2018-11-11T18:02:44.920Z,181.17
2018-11-11T18:05:14.537Z,125.07
2018-11-11T18:07:42.951Z,143.63
2018-11-11T18:10:15.203Z,138.50
2018-11-11T18:12:43.635Z,150.10
2018-11-11T18:15:13.556Z,166.20
2018-11-11T18:17:42.414Z,171.30
2018-11-11T18:20:19.385Z,129.23
2018-11-11T18:22:48.264Z,123.43
2018-11-11T18:25:17.012Z,142.83
2018-11-11T18:27:45.461Z,142.03
2018-11-11T18:30:19.615Z,135.90
2018-11-11T18:32:48.323Z,137.30
2018-11-11T18:35:17.603Z,131.83
2018-11-11T18:37:46.009Z,113.23
2018-11-11T18:40:15.900Z,116.70
2018-11-11T18:42:44.587Z,126.10
2018-11-11T18:45:14.694Z,115.53
2018-11-11T18:47:43.513Z,155.27
2018-11-11T18:50:18.295Z,130.13
2018-11-11T18:52:46.912Z,129.67
2018-11-11T18:55:15.314Z,137.43
2018-11-11T18:57:44.128Z,122.50
2018-11-11T19:00:16.349Z,112.70
2018-11-11T19:02:46.028Z,105.67
2018-11-11T19:05:15.390Z,102.33
2018-11-11T19:07:44.066Z,103.00
2018-11-11T19:10:14.409Z,110.70
2018-11-11T19:12:43.982Z,97.27
2018-11-11T19:15:13.437Z,113.37
2018-11-11T19:17:43.420Z,91.70
2018-11-11T19:20:13.199Z,112.67
2018-11-11T19:22:41.584Z,110.07
2018-11-11T19:25:12.807Z,117.83
2018-11-11T19:27:42.173Z,136.33
2018-11-11T19:30:12.612Z,120.10
2018-11-11T19:32:41.643Z,126.13
2018-11-11T19:35:11.266Z,128.17
2018-11-11T19:37:39.635Z,108.50
2018-11-11T19:40:10.938Z,106.43
2018-11-11T19:42:39.691Z,102.50
2018-11-11T19:45:09.395Z,93.03
2018-11-11T19:47:38.823Z,91.70
2018-11-11T19:50:08.472Z,94.70
2018-11-11T19:52:36.987Z,97.97
2018-11-11T19:55:06.333Z,95.17
2018-11-11T19:57:34.859Z,85.27
2018-11-11T20:00:03.288Z,102.20
2018-11-11T20:02:31.888Z,104.20
2018-11-11T20:05:00.478Z,93.00
2018-11-11T20:07:28.952Z,100.10
2018-11-11T20:09:58.382Z,98.17
2018-11-11T20:12:26.824Z,98.67
2018-11-11T20:14:55.312Z,96.63
2018-11-11T20:17:24.038Z,100.63
2018-11-11T20:19:53.895Z,93.13
2018-11-11T20:22:22.940Z,91.93
2018-11-11T20:24:53.923Z,90.03
2018-11-11T20:27:22.487Z,89.53
2018-11-11T20:29:50.995Z,80.60
2018-11-11T20:32:19.620Z,84.67
2018-11-11T20:34:48.320Z,80.33
2018-11-11T20:37:17.052Z,78.37
2018-11-11T20:39:45.567Z,81.90
2018-11-11T20:42:14.167Z,75.30
2018-11-11T20:44:43.848Z,94.60
2018-11-11T20:47:12.272Z,86.93
2018-11-11T20:49:40.808Z,86.63
2018-11-11T20:52:09.868Z,78.57
2018-11-11T20:54:38.606Z,72.10
2018-11-11T20:57:07.796Z,70.80
2018-11-11T20:59:36.350Z,70.40
2018-11-11T21:02:05.034Z,65.53
2018-11-11T21:04:34.130Z,70.37
2018-11-11T21:07:03.239Z,64.07
2018-11-11T21:09:31.854Z,62.23
2018-11-11T21:12:04.020Z,75.97
2018-11-11T21:14:37.110Z,72.80
2018-11-11T21:17:10.726Z,68.23
2018-11-11T21:19:39.400Z,64.23
2018-11-11T21:22:12.726Z,70.43
2018-11-11T21:24:41.147Z,77.63
2018-11-11T21:27:09.695Z,77.60
2018-11-11T21:29:38.460Z,86.20
2018-11-11T21:32:07.111Z,100.50
2018-11-11T21:34:35.941Z,99.23
2018-11-11T21:37:04.426Z,112.00
2018-11-11T21:39:32.832Z,96.20
2018-11-11T21:42:01.341Z,92.83
2018-11-11T21:44:30.387Z,91.43
2018-11-11T21:46:58.848Z,86.63
2018-11-11T21:49:27.813Z,97.90
2018-11-11T21:51:56.285Z,99.57
2018-11-11T21:54:24.931Z,112.47
2018-11-11T21:56:53.331Z,109.00
2018-11-11T21:59:21.857Z,86.67
2018-11-11T22:01:50.315Z,87.50
2018-11-11T22:04:18.818Z,80.10
2018-11-11T22:06:47.954Z,92.20
2018-11-11T22:09:17.278Z,78.67
2018-11-11T22:11:48.120Z,77.57
2018-11-11T22:14:16.488Z,78.67
2018-11-11T22:16:44.984Z,78.20
2018-11-11T22:19:13.376Z,72.47
2018-11-11T22:21:41.816Z,68.67
2018-11-11T22:24:10.182Z,66.50
2018-11-11T22:26:38.563Z,66.17
2018-11-11T22:29:07.679Z,74.80
2018-11-11T22:31:37.015Z,70.00
2018-11-11T22:34:05.767Z,65.10
2018-11-11T22:36:34.329Z,62.73
2018-11-11T22:39:02.837Z,60.93
2018-11-11T22:41:31.263Z,56.73
2018-11-11T22:43:59.687Z,54.43
2018-11-11T22:46:28.115Z,71.73
2018-11-11T22:48:56.711Z,55.60
2018-11-11T22:51:25.752Z,64.30
2018-11-11T22:53:54.178Z,68.37
2018-11-11T22:56:22.579Z,76.07
2018-11-11T22:58:51.048Z,65.17
2018-11-11T23:01:21.428Z,68.67
2018-11-11T23:03:50.384Z,66.63
2018-11-11T23:06:18.795Z,94.73
2018-11-11T23:08:47.540Z,94.23
2018-11-11T23:11:16.533Z,107.10
2018-11-11T23:13:44.955Z,100.50
2018-11-11T23:16:13.434Z,103.70
2018-11-11T23:18:41.938Z,107.27
2018-11-11T23:21:10.363Z,109.20
2018-11-11T23:23:38.910Z,110.20
2018-11-11T23:26:07.408Z,114.07
2018-11-11T23:28:36.434Z,110.00
2018-11-11T23:31:05.091Z,109.33
2018-11-11T23:33:33.581Z,110.80
2018-11-11T23:36:02.208Z,107.70
2018-11-11T23:38:30.627Z,125.33
2018-11-11T23:40:59.032Z,136.47
2018-11-11T23:43:27.440Z,127.07
2018-11-11T23:45:55.811Z,124.33
2018-11-11T23:48:24.281Z,121.10
2018-11-11T23:50:52.698Z,120.20
2018-11-11T23:53:21.115Z,116.07
2018-11-11T23:55:49.515Z,122.50
2018-11-11T23:58:17.887Z,119.73
